Time;durP1;ratioP1;P1;durP2;ratioP2;P2;SDS_P1;SDS_P2;PMS_P1;PMS_P2;Temp;Humidity;BMP_temperature;BMP_pressure;BME280_temperature;BME280_humidity;BME280_pressure;Samples;Min_cycle;Max_cycle;Signal;HPM_P1;HPM_P2
2021/09/29 00:01:10;;;;;;;;;2.50;0.75;;;;;16.56;49.65;101243.09;5019100;28;45353;-51
2021/09/29 00:03:36;;;;;;;;;0.00;0.00;;;;;16.55;49.77;101244.00;5019377;28;45483;-50
2021/09/29 00:06:03;;;;;;;;;3.50;1.25;;;;;16.55;49.66;101249.31;5021217;28;45320;-52
2021/09/29 00:08:29;;;;;;;;;1.50;0.00;;;;;16.53;49.64;101243.19;5022348;28;46054;-53
2021/09/29 00:10:54;;;;;;;;;1.50;0.75;;;;;16.56;49.52;101237.78;5022152;28;45456;-54
2021/09/29 00:13:23;;;;;;;;;5.00;1.00;;;;;16.56;49.75;101240.44;5022581;28;45309;-52
2021/09/29 00:15:49;;;;;;;;;0.00;0.00;;;;;16.60;49.93;101235.03;5022347;28;45220;-53
2021/09/29 00:18:14;;;;;;;;;1.50;1.50;;;;;16.53;49.89;101224.59;5022082;28;46419;-53
2021/09/29 00:20:40;;;;;;;;;2.25;0.75;;;;;16.60;49.81;101229.72;5020939;28;45271;-53
2021/09/29 00:23:05;;;;;;;;;0.00;0.00;;;;;16.61;50.08;101228.81;5022552;28;45554;-55
2021/09/29 00:25:30;;;;;;;;;1.25;0.00;;;;;16.61;50.32;101231.47;5022020;28;45293;-54
2021/09/29 00:27:56;;;;;;;;;1.25;0.75;;;;;16.60;49.91;101227.91;5022101;28;46182;-53
2021/09/29 00:30:21;;;;;;;;;1.00;1.00;;;;;16.61;50.12;101239.41;5022257;28;45255;-54
2021/09/29 00:32:47;;;;;;;;;0.75;0.75;;;;;16.62;49.89;101230.56;5022339;28;45223;-54
2021/09/29 00:35:15;;;;;;;;;0.75;0.75;;;;;16.60;50.23;101229.72;5021942;28;45202;-54
2021/09/29 00:37:40;;;;;;;;;1.75;1.75;;;;;16.61;50.21;101236.78;5009836;28;46144;-55
2021/09/29 00:40:08;;;;;;;;;1.75;0.50;;;;;16.65;50.03;101230.44;5001891;28;45294;-52
2021/09/29 00:42:34;;;;;;;;;0.00;0.00;;;;;16.65;49.96;101219.81;5002130;28;45362;-52
2021/09/29 00:44:59;;;;;;;;;2.00;1.00;;;;;16.64;50.11;101218.97;5001935;28;45476;-54
2021/09/29 00:47:27;;;;;;;;;2.00;2.00;;;;;16.65;50.09;101217.16;5000770;28;47075;-53
2021/09/29 00:49:52;;;;;;;;;1.75;1.25;;;;;16.67;50.29;101210.03;5001949;28;45172;-53
2021/09/29 00:52:18;;;;;;;;;0.75;0.75;;;;;16.65;50.47;101207.41;5002175;28;45536;-56
2021/09/29 00:54:43;;;;;;;;;1.00;1.00;;;;;16.67;50.17;101202.94;5001680;28;45372;-53
2021/09/29 00:57:09;;;;;;;;;5.75;2.00;;;;;16.66;50.38;101203.00;5001477;28;46312;-53
2021/09/29 00:59:36;;;;;;;;;2.50;1.00;;;;;16.65;50.48;101214.53;5001760;28;45440;-54
2021/09/29 01:02:01;;;;;;;;;1.25;0.75;;;;;16.68;50.26;101209.13;5002105;28;45352;-54
2021/09/29 01:04:27;;;;;;;;;0.75;0.75;;;;;16.65;50.23;101204.75;5000025;28;45295;-52
2021/09/29 01:07:13;;;;;;;;;2.00;1.75;;;;;16.64;50.50;101196.84;5000963;28;45285;-52
2021/09/29 01:09:39;;;;;;;;;0.75;0.75;;;;;16.63;50.33;101209.28;4999236;28;45445;-54
2021/09/29 01:12:14;;;;;;;;;0.00;0.00;;;;;16.60;50.46;101204.03;5001168;28;45310;-53
2021/09/29 01:14:53;;;;;;;;;1.00;1.00;;;;;16.54;50.70;101197.16;5003409;28;45234;-53
2021/09/29 01:17:19;;;;;;;;;2.75;1.00;;;;;16.55;50.69;101198.91;4997564;28;46063;-55
2021/09/29 01:19:58;;;;;;;;;3.25;1.50;;;;;16.50;50.76;101190.22;5001583;28;45367;-53
2021/09/29 01:22:41;;;;;;;;;1.50;0.75;;;;;16.52;50.79;101191.03;5001950;28;45330;-53
2021/09/29 01:25:20;;;;;;;;;3.50;1.00;;;;;16.51;50.60;101185.78;5001200;28;45247;-52
2021/09/29 01:27:47;;;;;;;;;0.75;0.75;;;;;16.49;50.49;101191.16;5000363;28;47157;-53
2021/09/29 01:30:13;;;;;;;;;1.00;1.00;;;;;16.49;50.61;101184.94;4999102;28;45624;-53
2021/09/29 01:32:40;;;;;;;;;0.00;0.00;;;;;16.45;50.84;101181.53;5000494;28;45421;-52
2021/09/29 01:35:06;;;;;;;;;2.00;1.75;;;;;16.44;50.82;101187.78;5000593;28;45316;-53
2021/09/29 01:37:32;;;;;;;;;1.75;1.50;;;;;16.45;50.95;101184.19;5000860;28;46388;-54
2021/09/29 01:39:57;;;;;;;;;1.50;1.00;;;;;16.45;51.09;101185.97;5000781;28;45368;-53
2021/09/29 01:42:24;;;;;;;;;0.50;0.00;;;;;16.45;50.74;101178.00;5000023;28;45462;-54
2021/09/29 01:44:49;;;;;;;;;2.00;0.50;;;;;16.43;50.65;101172.78;5001054;28;45503;-53
2021/09/29 01:47:14;;;;;;;;;1.50;0.75;;;;;16.46;50.86;101177.09;5001163;28;45310;-52
2021/09/29 01:49:49;;;;;;;;;0.75;0.75;;;;;16.44;51.09;101176.28;5001099;28;45254;-53
2021/09/29 01:52:21;;;;;;;;;1.50;0.75;;;;;16.42;51.12;101171.03;5001294;28;45322;-52
2021/09/29 01:54:48;;;;;;;;;1.50;0.50;;;;;16.38;51.50;101170.25;5000775;28;45314;-52
2021/09/29 01:57:15;;;;;;;;;0.25;0.25;;;;;16.39;51.54;101168.50;5000543;28;45365;-53
2021/09/29 01:59:43;;;;;;;;;1.25;1.25;;;;;16.37;51.54;101167.66;4999639;28;45336;-54
2021/09/29 02:02:09;;;;;;;;;2.25;0.75;;;;;16.36;51.55;101156.19;5001179;28;45224;-53
2021/09/29 02:04:35;;;;;;;;;2.00;0.00;;;;;16.36;52.06;101165.91;5000815;28;45514;-54
2021/09/29 02:07:00;;;;;;;;;1.00;0.25;;;;;16.33;52.03;101166.03;5000798;28;47241;-53
2021/09/29 02:09:27;;;;;;;;;0.00;0.00;;;;;16.31;52.21;101159.88;5000934;28;45311;-54
2021/09/29 02:11:55;;;;;;;;;0.00;0.00;;;;;16.29;52.42;101164.38;5000642;28;45492;-54
2021/09/29 02:14:22;;;;;;;;;1.50;0.25;;;;;16.27;52.47;101166.22;5000988;28;45218;-54
2021/09/29 02:16:50;;;;;;;;;1.75;0.00;;;;;16.22;52.39;101158.38;5000431;28;47067;-53
2021/09/29 02:19:16;;;;;;;;;1.50;0.75;;;;;16.14;52.70;101153.34;5000793;28;45388;-54
2021/09/29 02:21:42;;;;;;;;;0.75;0.75;;;;;16.19;52.96;101158.50;5000639;28;45377;-54
2021/09/29 02:24:09;;;;;;;;;1.25;1.25;;;;;16.13;53.14;101146.28;5000680;28;45326;-52
2021/09/29 02:26:34;;;;;;;;;0.00;0.00;;;;;16.13;53.04;101143.63;5000186;28;45327;-54
2021/09/29 02:29:01;;;;;;;;;0.00;0.00;;;;;16.11;53.12;101142.81;4999820;28;45343;-52
2021/09/29 02:31:26;;;;;;;;;2.00;0.75;;;;;16.11;53.21;101147.25;5000665;28;45249;-53
2021/09/29 02:33:52;;;;;;;;;0.00;0.00;;;;;16.06;53.87;101142.97;5000673;28;45281;-53
2021/09/29 02:36:18;;;;;;;;;2.75;1.00;;;;;16.06;53.71;101147.38;4999943;28;46774;-52
2021/09/29 02:38:45;;;;;;;;;0.50;0.50;;;;;16.07;54.10;101165.03;4998994;28;45404;-53
2021/09/29 02:41:11;;;;;;;;;0.50;0.25;;;;;16.06;53.96;101155.34;5000093;28;45326;-50
2021/09/29 02:43:37;;;;;;;;;0.50;0.50;;;;;16.03;54.01;101160.75;5000393;28;45313;-53
2021/09/29 02:46:02;;;;;;;;;1.25;0.75;;;;;15.99;54.05;101157.31;4999931;28;46275;-50
2021/09/29 02:48:28;;;;;;;;;0.00;0.00;;;;;16.05;54.49;101164.19;5000613;28;45298;-54
2021/09/29 02:50:53;;;;;;;;;0.00;0.00;;;;;16.04;54.63;101173.09;5000479;28;45514;-53
2021/09/29 02:53:19;;;;;;;;;0.75;0.75;;;;;16.04;54.26;101173.94;5000325;28;45543;-53
2021/09/29 02:55:44;;;;;;;;;2.25;0.75;;;;;16.03;55.01;101169.56;4999745;28;46088;-53
2021/09/29 02:58:10;;;;;;;;;0.50;0.50;;;;;16.02;55.21;101164.31;5000107;28;45237;-53
2021/09/29 03:00:36;;;;;;;;;1.25;0.75;;;;;16.01;55.24;101165.22;5000204;28;45417;-54
2021/09/29 03:03:01;;;;;;;;;1.75;0.75;;;;;16.01;55.38;101166.09;5000282;28;45397;-54
2021/09/29 03:05:27;;;;;;;;;0.50;0.50;;;;;16.03;55.33;101174.00;4998568;28;46858;-54
2021/09/29 03:07:52;;;;;;;;;1.75;0.75;;;;;16.02;55.60;101172.25;5000263;28;45258;-53
2021/09/29 03:10:17;;;;;;;;;0.00;0.00;;;;;16.04;55.12;101186.34;4999907;28;45516;-53
2021/09/29 03:12:43;;;;;;;;;0.25;0.25;;;;;16.01;55.29;101170.50;4999970;28;45492;-54
2021/09/29 03:15:09;;;;;;;;;0.75;0.25;;;;;16.01;55.44;101167.88;4998586;28;47622;-54
2021/09/29 03:17:34;;;;;;;;;0.00;0.00;;;;;16.01;55.55;101170.50;4985527;28;45487;-53
2021/09/29 03:20:00;;;;;;;;;1.75;0.75;;;;;16.00;55.85;101172.31;5000330;28;45340;-54
2021/09/29 03:22:25;;;;;;;;;2.25;0.25;;;;;16.04;56.58;101170.44;4999944;28;45597;-53
2021/09/29 03:24:50;;;;;;;;;2.25;0.50;;;;;16.07;55.81;101180.94;4999640;28;46134;-53
2021/09/29 03:27:16;;;;;;;;;1.25;0.75;;;;;16.05;55.74;101157.13;4999764;28;45309;-53
2021/09/29 03:29:41;;;;;;;;;1.25;0.75;;;;;16.07;55.91;101168.56;4999987;28;45394;-54
2021/09/29 03:32:07;;;;;;;;;1.00;1.00;;;;;16.10;56.06;101170.25;4999984;28;45299;-53
2021/09/29 03:34:33;;;;;;;;;1.75;1.75;;;;;16.09;55.89;101165.88;4999660;28;45243;-54
2021/09/29 03:36:58;;;;;;;;;0.75;0.75;;;;;16.14;56.16;101171.88;4999481;28;45355;-52
2021/09/29 03:39:24;;;;;;;;;2.00;0.50;;;;;16.14;56.01;101158.63;5000895;28;45480;-54
2021/09/29 03:41:49;;;;;;;;;0.75;0.00;;;;;16.17;56.10;101166.47;5002784;28;45315;-54
2021/09/29 03:44:14;;;;;;;;;0.75;0.50;;;;;16.19;56.21;101146.09;5003160;28;45294;-53
2021/09/29 03:46:40;;;;;;;;;1.25;0.00;;;;;16.17;56.54;101163.81;5003143;28;45221;-53
2021/09/29 03:49:05;;;;;;;;;2.00;0.50;;;;;16.20;56.35;101168.16;5003318;28;45304;-53
2021/09/29 03:51:31;;;;;;;;;3.00;1.00;;;;;16.19;56.30;101179.72;5003153;28;45454;-54
2021/09/29 03:53:57;;;;;;;;;0.75;0.75;;;;;16.19;56.61;101169.97;5002882;28;47083;-53
2021/09/29 03:56:22;;;;;;;;;1.00;0.00;;;;;16.21;56.88;101178.75;5002591;28;45407;-54
2021/09/29 03:58:47;;;;;;;;;1.75;1.75;;;;;16.21;56.64;101172.56;5003009;28;45726;-53
2021/09/29 04:01:13;;;;;;;;;0.25;0.25;;;;;16.20;56.96;101176.13;5002949;28;45415;-53
2021/09/29 04:03:38;;;;;;;;;0.75;0.75;;;;;16.20;57.15;101181.44;5018250;28;47126;-52
2021/09/29 04:06:04;;;;;;;;;1.00;0.75;;;;;16.21;57.11;101185.81;5002846;28;45257;-53
2021/09/29 04:08:29;;;;;;;;;1.25;0.25;;;;;16.19;56.99;101180.56;5002892;28;45503;-53
2021/09/29 04:10:56;;;;;;;;;1.25;1.25;;;;;16.17;57.00;101179.72;5002580;28;45416;-54
2021/09/29 04:13:21;;;;;;;;;2.75;1.75;;;;;16.16;57.63;101175.38;5002659;28;45413;-52
2021/09/29 04:15:47;;;;;;;;;1.75;1.25;;;;;16.15;57.45;101178.94;5002490;28;45265;-53
2021/09/29 04:18:12;;;;;;;;;1.00;0.50;;;;;16.13;57.31;101172.81;5002687;28;45397;-52
2021/09/29 04:20:39;;;;;;;;;0.50;0.25;;;;;16.09;57.44;101166.72;5002800;28;45383;-54
2021/09/29 04:23:06;;;;;;;;;0.50;0.50;;;;;16.13;57.31;101180.75;5002453;28;46377;-54
2021/09/29 04:25:31;;;;;;;;;1.50;1.00;;;;;16.12;57.34;101186.97;5002257;28;45254;-54
2021/09/29 04:27:56;;;;;;;;;3.75;0.75;;;;;16.12;57.32;101180.81;5002434;28;45175;-53
2021/09/29 04:30:22;;;;;;;;;1.75;0.50;;;;;16.07;57.30;101180.94;5002435;28;45465;-53
2021/09/29 04:32:47;;;;;;;;;1.00;1.00;;;;;16.07;57.67;101180.94;5002411;28;46117;-53
2021/09/29 04:35:13;;;;;;;;;0.50;0.50;;;;;16.04;57.61;101184.56;5002176;28;45493;-53
2021/09/29 04:37:38;;;;;;;;;3.00;1.75;;;;;16.08;57.85;101190.63;5002297;28;45396;-52
2021/09/29 04:40:06;;;;;;;;;0.50;0.00;;;;;16.07;57.73;101186.25;5002102;28;45390;-53
2021/09/29 04:42:31;;;;;;;;;3.50;2.50;;;;;16.07;57.46;101203.03;5002060;28;46138;-51
2021/09/29 04:44:57;;;;;;;;;0.75;0.75;;;;;16.06;57.73;101190.69;5001958;28;45254;-53
2021/09/29 04:47:23;;;;;;;;;3.50;1.50;;;;;16.02;57.80;101198.75;5002343;28;45316;-52
2021/09/29 04:49:48;;;;;;;;;2.25;0.75;;;;;15.97;58.27;101190.09;5001921;28;45370;-49
2021/09/29 04:52:13;;;;;;;;;1.75;0.50;;;;;15.98;58.16;101197.97;5001649;28;46371;-49
2021/09/29 04:54:41;;;;;;;;;1.75;0.75;;;;;15.98;58.05;101200.63;5001940;28;45226;-49
2021/09/29 04:57:08;;;;;;;;;1.50;0.75;;;;;15.92;58.95;101207.00;5001772;28;45178;-52
2021/09/29 04:59:34;;;;;;;;;1.00;0.50;;;;;15.92;59.10;101190.22;5001845;28;45305;-52
2021/09/29 05:01:59;;;;;;;;;1.25;0.75;;;;;15.91;59.02;101201.72;5001925;28;45482;-52
2021/09/29 05:04:25;;;;;;;;;4.75;1.75;;;;;15.86;59.13;101193.94;5000362;28;45421;-51
2021/09/29 05:06:52;;;;;;;;;2.75;1.75;;;;;15.83;59.48;101191.34;5002078;28;45409;-53
2021/09/29 05:09:18;;;;;;;;;1.00;1.00;;;;;15.80;59.12;101207.31;5001731;28;45541;-53
2021/09/29 05:11:47;;;;;;;;;1.00;1.00;;;;;15.81;59.27;101206.41;5001446;28;46068;-52
2021/09/29 05:14:13;;;;;;;;;1.75;1.00;;;;;15.81;59.83;101209.06;5001590;28;45246;-54
2021/09/29 05:16:39;;;;;;;;;2.75;2.00;;;;;15.78;59.46;101227.69;5001746;28;45154;-50
2021/09/29 05:19:05;;;;;;;;;1.50;0.25;;;;;15.75;60.31;101238.38;5001636;28;45456;-52
2021/09/29 05:21:33;;;;;;;;;2.50;0.25;;;;;15.76;59.86;101262.16;5001474;28;45428;-53
2021/09/29 05:23:58;;;;;;;;;0.50;0.50;;;;;15.75;60.81;101268.38;5001534;28;45333;-54
2021/09/29 05:26:24;;;;;;;;;0.00;0.00;;;;;15.71;60.63;101272.03;5001586;28;45329;-53
2021/09/29 05:28:50;;;;;;;;;1.00;0.00;;;;;15.63;59.99;101274.00;5001287;28;45627;-55
2021/09/29 05:31:16;;;;;;;;;2.25;0.00;;;;;15.56;59.65;101257.41;5001365;28;46316;-54
2021/09/29 05:33:42;;;;;;;;;0.00;0.00;;;;;15.53;59.50;101262.78;5001112;28;45306;-54
2021/09/29 05:36:07;;;;;;;;;0.00;0.00;;;;;15.48;59.48;101269.97;5000005;28;45480;-55
2021/09/29 05:38:33;;;;;;;;;0.00;0.00;;;;;15.40;59.11;101264.03;5001237;28;45210;-55
2021/09/29 05:40:58;;;;;;;;;0.00;0.00;;;;;15.34;58.80;101272.13;5001299;28;46421;-54
2021/09/29 05:43:24;;;;;;;;;0.00;0.00;;;;;15.30;58.62;101279.28;5001118;28;45234;-53
2021/09/29 05:45:51;;;;;;;;;0.50;0.50;;;;;15.27;58.72;101277.59;5001477;28;45664;-54
2021/09/29 05:48:16;;;;;;;;;0.50;0.00;;;;;15.26;58.38;101290.88;5001387;28;45460;-55
2021/09/29 05:50:42;;;;;;;;;0.00;0.00;;;;;15.20;58.64;101299.81;5001261;28;45311;-53
2021/09/29 05:53:07;;;;;;;;;0.50;0.50;;;;;15.20;58.52;101309.53;5001065;28;45340;-54
2021/09/29 05:55:32;;;;;;;;;0.00;0.00;;;;;15.17;58.50;101306.97;5001121;28;45305;-55
2021/09/29 05:57:58;;;;;;;;;0.00;0.00;;;;;15.16;58.34;101303.44;5000873;28;45399;-54
2021/09/29 06:00:23;;;;;;;;;1.00;0.75;;;;;15.13;58.25;101311.44;5001150;28;46414;-55
2021/09/29 06:02:48;;;;;;;;;0.00;0.00;;;;;15.13;58.08;101313.25;4999915;28;45246;-54
2021/09/29 06:05:17;;;;;;;;;2.50;1.00;;;;;15.11;57.82;101308.00;5001226;28;45484;-54
2021/09/29 06:07:42;;;;;;;;;0.00;0.00;;;;;15.10;58.19;101319.47;5000996;28;45327;-54
2021/09/29 06:10:09;;;;;;;;;0.00;0.00;;;;;15.10;58.20;101325.63;5000575;28;46513;-53
2021/09/29 06:12:34;;;;;;;;;1.00;0.00;;;;;15.11;58.04;101326.53;5000657;28;45276;-54
2021/09/29 06:15:00;;;;;;;;;0.25;0.25;;;;;15.07;58.17;101331.00;5000865;28;45482;-53
2021/09/29 06:17:36;;;;;;;;;0.75;0.75;;;;;15.09;58.12;101341.56;5000745;28;45531;-54
2021/09/29 06:20:03;;;;;;;;;0.00;0.00;;;;;15.06;57.97;101339.00;5000575;28;46063;-54
2021/09/29 06:22:29;;;;;;;;;0.00;0.00;;;;;15.03;58.18;101349.63;4999492;28;45288;-55
2021/09/29 06:24:54;;;;;;;;;1.75;0.25;;;;;15.05;58.52;101361.06;5000366;28;45537;-54
2021/09/29 06:27:20;;;;;;;;;1.00;1.00;;;;;15.04;58.59;101362.84;5000849;28;45439;-51
2021/09/29 06:29:45;;;;;;;;;0.25;0.00;;;;;15.04;58.13;101364.63;5000103;28;45235;-53
2021/09/29 06:32:10;;;;;;;;;0.00;0.00;;;;;15.04;58.35;101377.84;4997529;28;45410;-54
2021/09/29 06:34:36;;;;;;;;;0.00;0.00;;;;;15.03;58.61;101384.03;4999547;28;45412;-53
2021/09/29 06:37:01;;;;;;;;;1.00;1.00;;;;;15.01;58.92;101393.81;5000334;28;45223;-52
2021/09/29 06:39:27;;;;;;;;;0.00;0.00;;;;;14.99;58.71;101391.19;4999802;28;45187;-54
2021/09/29 06:41:52;;;;;;;;;1.25;0.00;;;;;14.98;58.67;101402.69;5000001;28;45255;-53
2021/09/29 06:44:18;;;;;;;;;0.00;0.00;;;;;14.95;58.78;101398.34;5000316;28;45584;-54
2021/09/29 06:46:43;;;;;;;;;0.50;0.50;;;;;14.94;58.78;101409.81;5000297;28;45496;-54
2021/09/29 06:49:08;;;;;;;;;0.00;0.00;;;;;14.94;59.50;101415.13;5000202;28;46947;-53
2021/09/29 06:51:34;;;;;;;;;0.75;0.00;;;;;14.91;59.08;101404.59;5000230;28;45549;-53
2021/09/29 06:54:00;;;;;;;;;1.00;0.00;;;;;14.91;59.06;101415.16;5000154;28;45388;-54
2021/09/29 06:56:25;;;;;;;;;0.00;0.00;;;;;14.94;58.70;101420.41;4999914;28;45640;-53
2021/09/29 06:58:52;;;;;;;;;0.00;0.00;;;;;14.91;58.84;101419.59;4999872;28;45313;-53
2021/09/29 07:01:18;;;;;;;;;0.25;0.25;;;;;14.95;59.22;101421.28;5000062;28;45365;-53
2021/09/29 07:03:44;;;;;;;;;1.00;0.75;;;;;14.99;58.76;101430.03;5000264;28;45341;-55
2021/09/29 07:06:10;;;;;;;;;1.00;0.00;;;;;14.99;58.48;101428.22;4999926;28;45736;-54
2021/09/29 07:08:35;;;;;;;;;2.00;0.75;;;;;15.04;58.77;101436.06;5000074;28;46415;-54
2021/09/29 07:11:01;;;;;;;;;0.00;0.00;;;;;15.05;58.96;101449.28;4999817;28;45239;-55
2021/09/29 07:13:26;;;;;;;;;0.00;0.00;;;;;15.08;59.02;101450.97;5000014;28;45298;-55
2021/09/29 07:15:52;;;;;;;;;0.00;0.00;;;;;15.07;58.77;101447.47;5001989;28;45250;-55
2021/09/29 07:18:17;;;;;;;;;0.00;0.00;;;;;15.10;59.42;101457.97;5003475;28;45719;-55
2021/09/29 07:20:43;;;;;;;;;2.25;1.00;;;;;15.13;59.12;101451.75;5003289;28;45243;-55
2021/09/29 07:23:09;;;;;;;;;2.00;0.75;;;;;15.16;59.25;101454.34;5003500;28;45235;-54
2021/09/29 07:25:35;;;;;;;;;0.00;0.00;;;;;15.17;58.80;101455.19;5003193;28;45329;-55
2021/09/29 07:28:01;;;;;;;;;0.00;0.00;;;;;15.21;59.04;101463.06;5003118;28;46254;-54
2021/09/29 07:30:27;;;;;;;;;1.00;0.00;;;;;15.25;59.06;101477.97;5003059;28;45332;-54
2021/09/29 07:32:55;;;;;;;;;1.25;1.25;;;;;15.30;58.71;101474.34;5003332;28;45389;-54
2021/09/29 07:35:20;;;;;;;;;0.00;0.00;;;;;15.32;58.69;101473.41;5002964;28;45223;-53
2021/09/29 07:37:46;;;;;;;;;0.75;0.50;;;;;15.35;58.52;101470.69;5002891;28;45230;-54
2021/09/29 07:40:13;;;;;;;;;2.00;0.00;;;;;15.37;58.59;101478.59;5002803;28;45238;-54
2021/09/29 07:42:39;;;;;;;;;0.75;0.75;;;;;15.39;58.57;101484.72;5003114;28;45255;-52
2021/09/29 07:45:07;;;;;;;;;0.75;0.25;;;;;15.38;58.74;101494.47;5002861;28;45690;-53
2021/09/29 07:47:33;;;;;;;;;2.00;0.00;;;;;15.39;58.54;101495.31;5003020;28;45337;-58
2021/09/29 07:49:58;;;;;;;;;0.50;0.00;;;;;15.42;58.42;101509.38;5002896;28;45452;-54
2021/09/29 07:52:24;;;;;;;;;2.25;1.50;;;;;15.43;58.37;101510.22;5003305;28;45243;-54
2021/09/29 07:54:50;;;;;;;;;0.50;0.00;;;;;15.44;58.51;101519.94;5002624;28;45210;-54
2021/09/29 07:57:15;;;;;;;;;0.50;0.50;;;;;15.44;58.71;101518.16;5002596;28;45417;-53
2021/09/29 07:59:41;;;;;;;;;3.00;0.25;;;;;15.42;58.45;101519.06;5002790;28;45255;-53
2021/09/29 08:02:06;;;;;;;;;1.50;0.00;;;;;15.43;58.36;101518.19;5001639;28;45296;-54
2021/09/29 08:04:32;;;;;;;;;2.50;0.00;;;;;15.43;58.55;101524.38;5002780;28;45164;-54
2021/09/29 08:06:57;;;;;;;;;0.00;0.00;;;;;15.42;58.79;101517.31;5002647;28;45968;-53
2021/09/29 08:09:22;;;;;;;;;0.50;0.25;;;;;15.43;58.47;101524.38;5002685;28;45520;-54
2021/09/29 08:11:49;;;;;;;;;0.00;0.00;;;;;15.44;58.30;101520.81;5002476;28;45319;-54
2021/09/29 08:14:17;;;;;;;;;0.75;0.25;;;;;15.47;58.38;101533.13;5001415;28;45333;-55
2021/09/29 08:16:43;;;;;;;;;0.75;0.50;;;;;15.48;58.12;101532.19;5002382;28;46278;-53
2021/09/29 08:19:08;;;;;;;;;0.50;0.50;;;;;15.52;58.56;101541.84;5002529;28;45337;-55
2021/09/29 08:21:35;;;;;;;;;0.00;0.00;;;;;15.52;57.91;101539.19;5002816;28;45226;-54
2021/09/29 08:24:07;;;;;;;;;0.00;0.00;;;;;15.59;58.16;101547.84;5002530;28;45180;-55
2021/09/29 08:34:19;;;;;;;;;0.00;0.00;;;;;15.64;57.32;101561.88;5002215;28;45341;-54
2021/09/29 08:47:54;;;;;;;;;2.00;2.00;;;;;15.85;57.11;101578.25;5002096;28;46230;-53
2021/09/29 08:58:04;;;;;;;;;1.25;0.25;;;;;16.09;56.42;101588.25;5021575;28;45683;-53
2021/09/29 09:16:58;;;;;;;;;0.75;0.75;;;;;16.44;55.26;101608.63;5021406;28;45254;-55
2021/09/29 09:19:29;;;;;;;;;3.00;1.00;;;;;16.49;55.20;101615.59;5021384;28;45947;-54
2021/09/29 09:22:00;;;;;;;;;0.25;0.25;;;;;16.54;55.00;101618.09;5021394;28;45349;-55
2021/09/29 09:24:32;;;;;;;;;1.00;1.00;;;;;16.56;54.93;101630.44;5021543;28;45318;-55
2021/09/29 09:27:06;;;;;;;;;0.00;0.00;;;;;16.58;54.84;101622.44;5021189;28;45435;-53
2021/09/29 09:29:43;;;;;;;;;1.00;0.00;;;;;16.66;54.50;101625.75;5021233;28;46718;-54
2021/09/29 09:32:10;;;;;;;;;0.00;0.00;;;;;16.72;54.26;101636.22;5020042;28;45643;-53
2021/09/29 09:34:36;;;;;;;;;1.00;1.00;;;;;16.77;54.04;101630.81;5021237;28;45238;-54
2021/09/29 09:37:01;;;;;;;;;1.00;0.00;;;;;16.84;54.23;101640.34;5014110;28;45746;-51
2021/09/29 09:39:29;;;;;;;;;0.00;0.00;;;;;16.88;53.97;101636.69;5014484;28;45668;-53
2021/09/29 09:41:58;;;;;;;;;2.00;1.00;;;;;16.95;53.89;101639.22;5020918;28;45302;-54
2021/09/29 09:44:30;;;;;;;;;1.00;1.00;;;;;17.03;53.50;101653.16;5021013;28;45317;-52
2021/09/29 09:47:06;;;;;;;;;1.00;1.00;;;;;17.09;53.30;101642.38;5021212;28;45332;-54
2021/09/29 09:49:53;;;;;;;;;1.50;0.25;;;;;17.16;52.87;101649.25;5021018;28;46971;-53
2021/09/29 09:52:29;;;;;;;;;1.00;1.00;;;;;17.18;53.05;101652.75;5021179;28;45348;-53
2021/09/29 09:55:04;;;;;;;;;1.25;0.25;;;;;17.25;52.70;101647.28;5020787;28;45448;-53
2021/09/29 09:57:29;;;;;;;;;0.75;0.00;;;;;17.32;52.54;101662.09;5020511;28;45221;-53
2021/09/29 09:59:55;;;;;;;;;2.00;0.00;;;;;17.35;52.41;101651.41;5020796;28;47049;-53
2021/09/29 10:02:20;;;;;;;;;3.75;0.75;;;;;17.40;52.28;101662.78;5020867;28;45222;-51
2021/09/29 10:04:47;;;;;;;;;0.00;0.00;;;;;17.47;51.81;101660.81;5020954;28;45426;-53
2021/09/29 10:07:13;;;;;;;;;1.00;0.00;;;;;17.48;51.94;101671.41;5020743;28;45238;-52
2021/09/29 10:09:43;;;;;;;;;0.00;0.00;;;;;17.56;51.55;101660.56;5020394;28;45731;-52
2021/09/29 10:12:31;;;;;;;;;1.00;0.00;;;;;17.61;51.40;101666.63;5020571;28;45353;-52
2021/09/29 10:26:18;;;;;;;;;3.00;1.00;;;;;17.93;50.54;101664.78;5020292;28;45368;-52
2021/09/29 10:28:44;;;;;;;;;2.50;0.00;;;;;17.98;50.39;101664.66;5020500;28;45228;-52
2021/09/29 10:31:30;;;;;;;;;0.50;0.50;;;;;18.08;50.29;101662.59;5020288;28;45946;-51
2021/09/29 10:34:14;;;;;;;;;0.00;0.00;;;;;18.19;50.37;101664.00;5020539;28;45379;-52
2021/09/29 10:47:32;;;;;;;;;0.00;0.00;;;;;18.74;49.42;101681.78;5000548;28;45167;-53
2021/09/29 11:30:59;;;;;;;;;0.50;0.00;;;;;19.47;47.96;101760.09;4999787;28;45293;-54
2021/09/29 11:33:38;;;;;;;;;1.00;0.50;;;;;19.59;47.80;101768.56;4999746;28;45772;-53
2021/09/29 11:36:24;;;;;;;;;0.50;0.00;;;;;19.74;47.48;101768.00;4999230;28;47111;-53
2021/09/29 11:50:21;;;;;;;;;1.00;1.00;;;;;20.51;46.81;101777.59;4999468;28;45163;-54
2021/09/29 12:09:50;;;;;;;;;1.50;0.00;;;;;20.98;45.64;101835.44;5002252;28;45452;-55
2021/09/29 12:14:52;;;;;;;;;1.00;0.00;;;;;20.52;46.79;101846.09;5002719;28;45518;-54
2021/09/29 12:17:30;;;;;;;;;0.50;0.00;;;;;20.26;46.99;101836.41;5002494;28;45316;-53
2021/09/29 12:20:00;;;;;;;;;1.00;0.00;;;;;20.05;46.67;101846.06;5002274;28;46443;-54
2021/09/29 12:22:29;;;;;;;;;0.00;0.00;;;;;19.85;47.09;101828.13;5002320;28;45367;-54
2021/09/29 12:25:08;;;;;;;;;1.00;0.00;;;;;19.73;47.22;101826.75;5002334;28;45397;-55
2021/09/29 12:27:47;;;;;;;;;1.50;1.25;;;;;19.61;47.13;101820.91;5002282;28;45178;-54
2021/09/29 12:30:17;;;;;;;;;0.00;0.00;;;;;19.62;47.57;101828.00;5002438;28;46209;-54
2021/09/29 12:33:42;;;;;;;;;1.00;0.00;;;;;19.70;47.16;101830.38;5002640;28;45175;-54
2021/09/29 12:35:50;;;;;;;;;1.00;0.00;;;;;19.82;47.59;101831.72;5000084;28;45568;-53
2021/09/29 12:38:16;;;;;;;;;0.25;0.25;;;;;19.93;47.28;101828.72;5001906;28;45372;-53
2021/09/29 12:40:43;;;;;;;;;0.75;0.75;;;;;20.11;46.73;101830.72;5002068;28;46034;-50
2021/09/29 12:43:12;;;;;;;;;0.00;0.00;;;;;20.32;46.93;101830.84;5001989;28;45308;-54
2021/09/29 12:45:40;;;;;;;;;0.50;0.00;;;;;20.56;47.33;101828.16;5002285;28;45323;-54
2021/09/29 12:48:08;;;;;;;;;1.00;0.00;;;;;20.83;46.96;101828.00;5001972;28;45320;-55
2021/09/29 12:53:45;;;;;;;;;0.00;0.00;;;;;21.34;46.05;101831.28;5002152;28;45348;-54
2021/09/29 12:56:17;;;;;;;;;0.00;0.00;;;;;21.55;45.62;101835.72;5001720;28;45344;-56
2021/09/29 12:58:46;;;;;;;;;0.00;0.00;;;;;21.75;45.53;101824.16;5001779;28;45226;-54
2021/09/29 13:01:12;;;;;;;;;0.00;0.00;;;;;21.93;45.61;101832.31;5001664;28;46211;-53
2021/09/29 13:03:37;;;;;;;;;1.00;1.00;;;;;22.12;44.83;101828.81;5001893;28;45321;-54
2021/09/29 13:06:03;;;;;;;;;3.50;0.00;;;;;22.29;44.49;101844.97;5002026;28;45301;-54
2021/09/29 13:08:28;;;;;;;;;0.00;0.00;;;;;22.48;44.70;101847.69;5001921;28;45313;-57
2021/09/29 13:10:58;;;;;;;;;0.75;0.00;;;;;22.68;44.36;101852.09;4999907;28;46334;-53
2021/09/29 13:13:24;;;;;;;;;0.50;0.00;;;;;22.85;44.25;101855.75;5001085;28;45305;-53
2021/09/29 13:15:54;;;;;;;;;0.25;0.25;;;;;23.00;43.82;101846.97;5016829;28;45356;-54
2021/09/29 13:18:34;;;;;;;;;0.00;0.00;;;;;23.15;43.41;101853.41;5001418;28;45189;-54
2021/09/29 13:21:15;;;;;;;;;0.00;0.00;;;;;23.24;43.53;101854.75;5001449;28;47623;-52
2021/09/29 13:23:53;;;;;;;;;0.33;0.00;;;;;23.30;44.24;101850.94;5001420;28;45226;-54
2021/09/29 13:36:55;;;;;;;;;0.00;0.00;;;;;22.62;42.69;101897.06;5001049;28;45341;-55
2021/09/29 13:39:21;;;;;;;;;0.00;0.00;;;;;22.43;43.01;101897.91;4999776;28;45163;-54
2021/09/29 13:41:53;;;;;;;;;0.00;0.00;;;;;22.21;41.22;101901.53;5001233;28;46225;-54
2021/09/29 13:44:20;;;;;;;;;0.00;0.00;;;;;22.00;42.26;101884.63;5001283;28;45327;-52
2021/09/29 13:46:46;;;;;;;;;2.00;0.25;;;;;21.89;42.10;101894.94;5001434;28;45278;-55
2021/09/29 13:49:12;;;;;;;;;0.50;0.50;;;;;21.84;42.73;101904.97;5001055;28;45171;-55
2021/09/29 13:51:40;;;;;;;;;0.00;0.00;;;;;21.83;42.29;101913.91;5000981;28;46899;-55
2021/09/29 13:54:09;;;;;;;;;0.00;0.00;;;;;21.88;42.14;101906.56;4999822;28;45348;-54
2021/09/29 14:29:31;;;;;;;;;1.00;0.00;;;;;22.60;41.32;101936.44;5020475;28;45324;-54